createdAt,value
2022-11-24T00:02:11.166Z,33.00
2022-11-24T00:04:41.707Z,31.80
2022-11-24T00:07:11.926Z,31.40
2022-11-24T00:09:42.402Z,32.80
2022-11-24T00:12:12.662Z,30.90
2022-11-24T00:14:42.740Z,31.80
2022-11-24T00:17:12.815Z,32.40
2022-11-24T00:19:43.250Z,32.10
2022-11-24T00:22:13.412Z,32.00
2022-11-24T00:24:43.464Z,31.30
2022-11-24T00:27:13.551Z,32.10
2022-11-24T00:29:43.566Z,32.40
2022-11-24T00:32:13.570Z,31.40
2022-11-24T00:34:43.817Z,32.40
2022-11-24T00:37:13.833Z,33.10
2022-11-24T00:39:43.901Z,33.10
2022-11-24T00:42:15.564Z,32.70
2022-11-24T00:44:45.903Z,33.00
2022-11-24T00:47:16.777Z,32.70
2022-11-24T00:49:47.450Z,31.40
2022-11-24T00:52:17.586Z,32.10
2022-11-24T00:54:47.623Z,33.10
2022-11-24T00:57:17.631Z,31.00
2022-11-24T00:59:48.010Z,33.30
2022-11-24T01:02:18.909Z,30.80
2022-11-24T01:04:50.058Z,31.90
2022-11-24T01:07:20.786Z,32.10
2022-11-24T01:09:51.771Z,31.00
2022-11-24T01:12:21.863Z,34.50
2022-11-24T01:14:51.938Z,37.00
2022-11-24T01:17:22.620Z,36.10
2022-11-24T01:19:53.464Z,38.10
2022-11-24T01:22:23.828Z,36.60
2022-11-24T01:24:53.924Z,33.50
2022-11-24T01:27:23.997Z,38.60
2022-11-24T01:29:54.130Z,36.20
2022-11-24T01:32:24.725Z,36.20
2022-11-24T01:34:54.859Z,34.40
2022-11-24T01:37:25.201Z,39.30
2022-11-24T01:39:55.791Z,34.70
2022-11-24T01:42:26.001Z,32.70
2022-11-24T01:45:43.943Z,30.70
2022-11-24T01:48:24.456Z,31.70
2022-11-24T01:51:25.903Z,30.00
2022-11-24T01:54:02.526Z,34.10
2022-11-24T01:56:32.738Z,34.00
2022-11-24T01:59:03.271Z,33.40
2022-11-24T02:01:37.597Z,35.10
2022-11-24T02:04:10.688Z,35.20
2022-11-24T02:06:41.072Z,29.70
2022-11-24T02:09:22.440Z,36.40
2022-11-24T02:11:52.501Z,35.10
2022-11-24T02:14:22.533Z,37.20
2022-11-24T02:16:54.181Z,32.90
2022-11-24T02:19:41.952Z,33.00
2022-11-24T02:22:29.803Z,32.20
2022-11-24T02:25:12.879Z,31.50
2022-11-24T02:27:45.316Z,33.80
2022-11-24T02:30:18.422Z,35.10
2022-11-24T02:32:48.671Z,32.60
2022-11-24T02:35:18.728Z,33.10
2022-11-24T02:37:48.821Z,31.20
2022-11-24T02:40:20.761Z,34.70
2022-11-24T02:42:51.414Z,33.90
2022-11-24T02:45:21.561Z,33.30
2022-11-24T02:47:51.761Z,37.10
2022-11-24T02:50:21.824Z,38.50
2022-11-24T02:52:51.869Z,39.90
2022-11-24T02:55:21.940Z,38.30
2022-11-24T02:57:52.065Z,39.30
2022-11-24T03:00:22.296Z,33.50
2022-11-24T03:02:52.410Z,38.50
2022-11-24T03:05:22.473Z,37.90
2022-11-24T03:07:52.748Z,34.30
2022-11-24T03:10:23.384Z,37.70
2022-11-24T03:12:53.928Z,35.00
2022-11-24T03:15:24.935Z,37.30
2022-11-24T03:17:57.756Z,39.50
2022-11-24T03:20:27.875Z,38.80
2022-11-24T03:22:58.726Z,36.90
2022-11-24T03:25:28.811Z,36.10
2022-11-24T03:27:59.595Z,40.60
2022-11-24T03:30:29.710Z,36.50
2022-11-24T03:33:00.423Z,35.60
2022-11-24T03:35:30.633Z,40.90
2022-11-24T03:38:00.714Z,37.60
2022-11-24T03:40:30.796Z,37.80
2022-11-24T03:43:00.936Z,40.60
2022-11-24T03:45:45.376Z,41.10
2022-11-24T03:48:17.119Z,41.30
2022-11-24T03:50:57.382Z,39.50
2022-11-24T03:53:28.525Z,40.00
2022-11-24T03:55:58.669Z,39.50
2022-11-24T03:58:28.738Z,40.30
2022-11-24T04:00:59.423Z,39.70
2022-11-24T04:03:29.750Z,35.50
2022-11-24T04:06:00.191Z,40.20
2022-11-24T04:08:30.222Z,38.60
2022-11-24T04:11:00.454Z,39.10
2022-11-24T04:13:30.791Z,37.50
2022-11-24T04:16:00.913Z,40.50
2022-11-24T04:18:31.065Z,39.40
2022-11-24T04:21:01.162Z,40.20
2022-11-24T04:23:31.263Z,40.70
2022-11-24T04:26:01.356Z,41.60
2022-11-24T04:28:31.412Z,40.50
2022-11-24T04:31:05.222Z,40.90
2022-11-24T04:33:35.432Z,39.60
2022-11-24T04:36:05.787Z,41.80
2022-11-24T04:39:25.723Z,40.30
2022-11-24T04:41:26.218Z,41.00
2022-11-24T04:43:56.359Z,41.80
2022-11-24T04:46:26.494Z,39.50
2022-11-24T04:48:56.702Z,38.50
2022-11-24T04:51:26.817Z,34.50
2022-11-24T04:53:56.905Z,37.70
2022-11-24T04:56:34.490Z,41.10
2022-11-24T04:59:08.178Z,41.40
2022-11-24T05:01:39.137Z,40.60
2022-11-24T05:04:10.684Z,40.00
2022-11-24T05:06:41.108Z,39.40
2022-11-24T05:09:11.269Z,39.50
2022-11-24T05:11:41.616Z,41.10
2022-11-24T05:14:11.747Z,40.70
2022-11-24T05:16:41.460Z,39.80
2022-11-24T05:19:11.505Z,40.40
2022-11-24T05:21:41.090Z,41.30
2022-11-24T05:24:11.883Z,41.30
2022-11-24T05:26:41.944Z,41.20
2022-11-24T05:29:11.631Z,41.40
2022-11-24T05:31:41.108Z,40.70
2022-11-24T05:34:10.784Z,40.10
2022-11-24T05:36:55.800Z,40.70
2022-11-24T05:39:25.842Z,41.10
2022-11-24T05:41:55.376Z,41.20
2022-11-24T05:44:25.335Z,40.10
2022-11-24T05:46:55.016Z,39.90
2022-11-24T05:49:26.011Z,40.20
2022-11-24T05:51:55.465Z,38.00
2022-11-24T05:54:25.404Z,37.50
2022-11-24T05:56:55.041Z,38.00
2022-11-24T05:59:24.949Z,38.50
2022-11-24T06:01:54.643Z,34.50
2022-11-24T06:04:24.635Z,38.50
2022-11-24T06:06:54.654Z,37.40
2022-11-24T06:09:24.649Z,35.90
2022-11-24T06:11:54.572Z,36.90
2022-11-24T06:14:24.919Z,37.30
2022-11-24T06:16:54.589Z,36.90
2022-11-24T06:19:24.454Z,37.70
2022-11-24T06:21:54.484Z,35.40
2022-11-24T06:24:24.612Z,36.80
2022-11-24T06:26:54.537Z,37.00
2022-11-24T06:29:24.067Z,36.00
2022-11-24T06:31:53.651Z,35.90
2022-11-24T06:34:23.662Z,35.80
2022-11-24T06:36:53.628Z,37.40
2022-11-24T06:39:23.145Z,37.20
2022-11-24T06:41:53.481Z,35.60
2022-11-24T06:44:23.646Z,38.10
2022-11-24T06:46:53.532Z,37.10
2022-11-24T06:49:23.496Z,36.60
2022-11-24T06:51:53.476Z,36.60
2022-11-24T06:54:23.289Z,36.20
2022-11-24T06:56:58.558Z,35.60
2022-11-24T06:59:28.870Z,34.90
2022-11-24T07:01:58.916Z,40.50
2022-11-24T07:04:28.999Z,37.50
2022-11-24T07:06:59.701Z,38.90
2022-11-24T07:09:34.538Z,38.80
2022-11-24T07:12:04.769Z,39.20
2022-11-24T07:14:34.599Z,38.10
2022-11-24T07:17:05.991Z,38.30
2022-11-24T07:19:36.056Z,37.10
2022-11-24T07:22:07.564Z,42.30
2022-11-24T07:24:37.773Z,29.50
2022-11-24T07:27:07.391Z,29.90
2022-11-24T07:29:37.387Z,38.20
2022-11-24T07:32:07.525Z,39.00
2022-11-24T07:34:37.243Z,34.30
2022-11-24T07:37:06.936Z,36.30
2022-11-24T07:39:36.814Z,28.50
2022-11-24T07:42:07.540Z,36.80
2022-11-24T07:44:37.470Z,35.40
2022-11-24T07:47:07.764Z,34.00
2022-11-24T07:49:37.730Z,37.00
2022-11-24T07:52:08.538Z,37.40
2022-11-24T07:54:38.574Z,38.10
2022-11-24T07:57:08.658Z,35.60
2022-11-24T07:59:38.644Z,35.40
2022-11-24T08:02:08.287Z,31.20
2022-11-24T08:04:39.206Z,35.90
2022-11-24T08:07:09.426Z,37.20
2022-11-24T08:09:39.585Z,34.50
2022-11-24T08:12:09.677Z,38.50
2022-11-24T08:14:39.673Z,40.40
2022-11-24T08:17:09.599Z,35.20
2022-11-24T08:19:40.033Z,33.50
2022-11-24T08:22:10.094Z,36.80
2022-11-24T08:24:41.178Z,37.60
2022-11-24T08:27:11.102Z,33.50
2022-11-24T08:29:40.733Z,34.30
2022-11-24T08:32:11.095Z,36.80
2022-11-24T08:34:41.104Z,37.30
2022-11-24T08:37:11.117Z,36.70
2022-11-24T08:39:41.186Z,34.80
2022-11-24T08:42:11.209Z,36.30
2022-11-24T08:44:41.006Z,39.20
2022-11-24T08:47:10.447Z,39.00
2022-11-24T08:49:40.389Z,36.60
2022-11-24T08:52:09.965Z,37.10
2022-11-24T08:54:40.052Z,34.60
2022-11-24T08:57:10.053Z,36.10
2022-11-24T08:59:40.077Z,36.10
2022-11-24T09:02:16.258Z,31.80
2022-11-24T09:04:46.443Z,36.70
2022-11-24T09:07:16.019Z,36.70
2022-11-24T09:09:45.982Z,33.30
2022-11-24T09:12:15.612Z,36.90
2022-11-24T09:14:45.619Z,36.20
2022-11-24T09:17:15.657Z,33.00
2022-11-24T09:19:45.687Z,37.40
2022-11-24T09:22:15.370Z,36.70
2022-11-24T09:24:45.298Z,36.20
2022-11-24T09:27:15.267Z,33.70
2022-11-24T09:29:45.288Z,32.50
2022-11-24T09:32:15.346Z,34.10
2022-11-24T09:34:46.451Z,32.20
2022-11-24T09:37:16.323Z,35.90
2022-11-24T09:39:45.858Z,34.80
2022-11-24T09:42:21.490Z,35.70
2022-11-24T09:45:13.088Z,32.30
2022-11-24T09:48:00.377Z,35.50
2022-11-24T09:50:38.091Z,35.70
2022-11-24T09:53:26.811Z,34.00
2022-11-24T09:56:00.681Z,35.40
2022-11-24T09:58:52.311Z,35.30
2022-11-24T10:01:43.769Z,34.00
2022-11-24T10:04:27.667Z,35.70
2022-11-24T10:07:00.760Z,35.00
2022-11-24T10:09:36.087Z,32.80
2022-11-24T10:12:28.960Z,31.80
2022-11-24T10:15:26.697Z,34.70
2022-11-24T10:18:23.924Z,35.90
2022-11-24T10:21:17.930Z,32.50
2022-11-24T10:24:18.569Z,35.20
2022-11-24T10:27:11.466Z,35.00
2022-11-24T10:29:42.201Z,32.50
2022-11-24T10:32:21.994Z,36.80
2022-11-24T10:34:52.100Z,34.50
2022-11-24T10:37:45.064Z,34.90
2022-11-24T10:40:56.575Z,32.50
2022-11-24T10:43:15.273Z,36.70
2022-11-24T10:45:44.924Z,32.50
2022-11-24T10:48:26.107Z,36.20
2022-11-24T10:50:59.474Z,34.70
2022-11-24T10:53:29.578Z,32.20
2022-11-24T10:56:01.116Z,29.00
2022-11-24T10:58:37.421Z,31.60
2022-11-24T11:01:17.560Z,33.20
2022-11-24T11:04:20.745Z,35.80
2022-11-24T11:06:50.765Z,31.30
2022-11-24T11:09:22.648Z,36.50
2022-11-24T11:11:54.708Z,29.70
2022-11-24T11:14:32.593Z,35.80
2022-11-24T11:17:02.963Z,33.80
2022-11-24T11:19:50.498Z,30.20
2022-11-24T11:22:34.370Z,36.60
2022-11-24T11:25:13.103Z,32.30
2022-11-24T11:27:43.324Z,32.50
2022-11-24T11:36:15.312Z,31.70
2022-11-24T11:38:45.257Z,33.30
2022-11-24T11:41:38.593Z,36.20
2022-11-24T11:44:45.403Z,32.50
2022-11-24T11:47:44.742Z,32.60
2022-11-24T11:50:15.615Z,35.20
2022-11-24T11:52:49.963Z,36.30
2022-11-24T11:55:19.785Z,34.30
2022-11-24T11:58:13.216Z,33.30
2022-11-24T12:00:48.364Z,33.30
2022-11-24T12:03:54.240Z,32.10
2022-11-24T12:06:49.339Z,33.20
2022-11-24T12:09:45.092Z,33.40
2022-11-24T12:12:35.391Z,33.90
2022-11-24T12:15:23.165Z,33.70
2022-11-24T12:18:06.462Z,32.30
2022-11-24T12:21:26.405Z,32.30
2022-11-24T12:24:38.417Z,32.10
2022-11-24T12:27:26.963Z,30.70
2022-11-24T12:30:00.349Z,30.10
2022-11-24T12:32:39.677Z,34.00
2022-11-24T12:35:40.498Z,31.50
2022-11-24T12:38:31.392Z,29.80
2022-11-24T12:41:41.233Z,32.10
2022-11-24T12:44:51.474Z,32.60
2022-11-24T12:47:33.457Z,31.00
2022-11-24T12:50:22.582Z,31.10
2022-11-24T12:53:01.840Z,33.40
2022-11-24T12:55:34.387Z,31.10
2022-11-24T12:58:10.969Z,31.80
2022-11-24T13:00:59.978Z,33.00
2022-11-24T13:03:44.615Z,30.80
2022-11-24T13:06:32.393Z,33.40
2022-11-24T13:09:10.094Z,30.50
2022-11-24T13:12:00.599Z,31.30
2022-11-24T13:14:33.731Z,31.30
2022-11-24T13:17:35.143Z,32.20
2022-11-24T13:20:21.494Z,30.40
2022-11-24T13:23:15.522Z,32.70
2022-11-24T13:25:45.258Z,29.30
2022-11-24T13:29:05.698Z,30.30
2022-11-24T13:31:39.375Z,31.30
2022-11-24T13:34:43.940Z,29.80
2022-11-24T13:37:34.803Z,31.30
2022-11-24T13:40:27.681Z,33.20
2022-11-24T13:42:58.380Z,31.30
2022-11-24T13:45:44.296Z,30.70
2022-11-24T13:48:23.584Z,30.90
2022-11-24T13:50:54.746Z,30.00
2022-11-24T13:53:46.895Z,32.20
2022-11-24T13:56:16.805Z,31.40
2022-11-24T13:59:17.120Z,30.30
2022-11-24T14:01:47.545Z,32.20
2022-11-24T14:07:19.707Z,31.10
2022-11-24T14:09:52.692Z,31.00
2022-11-24T14:12:26.061Z,32.70
2022-11-24T14:14:59.213Z,28.90
2022-11-24T14:17:29.287Z,29.90
2022-11-24T14:19:59.635Z,31.10
2022-11-24T14:22:58.261Z,29.80
2022-11-24T14:25:33.092Z,32.60
2022-11-24T14:28:02.902Z,30.50
2022-11-24T14:30:32.349Z,32.00
2022-11-24T14:33:03.438Z,31.80
2022-11-24T14:35:37.522Z,32.10
2022-11-24T14:38:07.942Z,32.20
2022-11-24T14:40:42.530Z,30.60
2022-11-24T14:43:32.866Z,30.80
2022-11-24T14:46:08.701Z,29.70
2022-11-24T14:48:48.160Z,32.60
2022-11-24T14:51:25.467Z,28.70
2022-11-24T14:54:03.021Z,30.30
2022-11-24T14:56:39.856Z,28.70
2022-11-24T14:59:26.681Z,31.50
2022-11-24T15:01:58.013Z,31.50
2022-11-24T15:07:32.353Z,28.80
2022-11-24T15:10:02.552Z,30.90
2022-11-24T15:12:43.508Z,29.70
2022-11-24T15:15:16.116Z,29.20
2022-11-24T15:17:52.964Z,29.40
2022-11-24T15:20:45.914Z,29.40
2022-11-24T15:23:34.917Z,30.90
2022-11-24T15:26:05.489Z,29.80
2022-11-24T15:28:35.145Z,28.00
2022-11-24T15:31:06.681Z,32.40
2022-11-24T15:33:36.432Z,28.70
2022-11-24T15:36:06.331Z,29.80
2022-11-24T15:38:36.264Z,28.60
2022-11-24T15:41:14.166Z,31.30
2022-11-24T15:43:44.247Z,31.70
2022-11-24T15:46:14.429Z,31.90
2022-11-24T15:48:44.599Z,30.80
2022-11-24T15:51:15.304Z,31.20
2022-11-24T15:53:46.419Z,32.20
2022-11-24T15:56:27.325Z,30.10
2022-11-24T15:58:56.807Z,29.20
2022-11-24T16:01:28.789Z,29.40
2022-11-24T16:03:58.416Z,30.90
2022-11-24T16:06:27.856Z,30.90
2022-11-24T16:08:58.826Z,30.60
2022-11-24T16:11:28.894Z,32.00
2022-11-24T16:13:58.488Z,31.50
2022-11-24T16:16:28.551Z,30.00
2022-11-24T16:18:58.537Z,31.90
2022-11-24T16:21:28.142Z,29.10
2022-11-24T16:23:58.159Z,30.80
2022-11-24T16:26:28.154Z,30.00
2022-11-24T16:28:58.146Z,29.20
2022-11-24T16:31:28.883Z,30.20
2022-11-24T16:33:58.465Z,30.00
2022-11-24T16:36:29.435Z,31.30
2022-11-24T16:39:00.592Z,29.80
2022-11-24T16:41:30.545Z,30.30
2022-11-24T16:44:00.611Z,27.80
2022-11-24T16:46:30.300Z,29.20
2022-11-24T16:49:04.291Z,28.90
2022-11-24T16:51:35.085Z,28.60
2022-11-24T16:54:05.494Z,29.50
2022-11-24T16:56:35.874Z,29.20
2022-11-24T16:59:05.806Z,29.80
2022-11-24T17:01:35.980Z,30.50
2022-11-24T17:04:11.039Z,29.50
2022-11-24T17:06:42.795Z,29.70
2022-11-24T17:09:13.753Z,29.20
2022-11-24T17:11:43.990Z,29.90
2022-11-24T17:14:14.579Z,27.60
2022-11-24T17:16:44.301Z,30.00
2022-11-24T17:19:14.799Z,30.50
2022-11-24T17:21:44.820Z,29.50
2022-11-24T17:24:18.715Z,31.10
2022-11-24T17:26:50.519Z,28.30
2022-11-24T17:29:21.063Z,29.30
2022-11-24T17:31:51.188Z,31.10
2022-11-24T17:34:21.673Z,30.90
2022-11-24T17:36:51.655Z,31.60
2022-11-24T17:39:24.893Z,31.20
2022-11-24T17:41:55.029Z,29.40
2022-11-24T17:44:31.595Z,29.40
2022-11-24T17:47:01.735Z,29.80
2022-11-24T17:49:32.131Z,28.20
2022-11-24T17:52:02.256Z,30.20
2022-11-24T17:54:45.998Z,29.30
2022-11-24T17:57:16.298Z,30.80
2022-11-24T17:59:46.820Z,30.50
2022-11-24T18:02:17.229Z,29.70
2022-11-24T18:04:46.774Z,32.00
2022-11-24T18:07:16.281Z,32.20
2022-11-24T18:09:46.365Z,30.00
2022-11-24T18:12:17.911Z,28.00
2022-11-24T18:14:47.684Z,28.30
2022-11-24T18:17:17.119Z,29.50
2022-11-24T18:19:46.582Z,29.80
2022-11-24T18:22:16.686Z,30.20
2022-11-24T18:24:48.496Z,28.30
2022-11-24T18:27:18.090Z,29.70
2022-11-24T18:29:49.895Z,29.90
2022-11-24T18:32:23.569Z,28.20
2022-11-24T18:34:53.257Z,28.80
2022-11-24T18:37:23.183Z,28.70
2022-11-24T18:39:53.205Z,29.40
2022-11-24T18:42:23.094Z,28.90
2022-11-24T18:44:54.166Z,29.60
2022-11-24T18:47:24.516Z,30.90
2022-11-24T18:49:54.767Z,30.00
2022-11-24T18:52:24.336Z,30.00
2022-11-24T18:54:53.834Z,29.70
2022-11-24T18:57:23.778Z,28.80
2022-11-24T18:59:53.647Z,30.10
2022-11-24T19:02:26.802Z,29.40
2022-11-24T19:04:56.895Z,31.60
2022-11-24T19:07:26.454Z,30.70
2022-11-24T19:09:57.215Z,28.90
2022-11-24T19:12:27.830Z,29.60
2022-11-24T19:14:58.547Z,29.00
2022-11-24T19:17:28.065Z,29.40
2022-11-24T19:19:57.760Z,29.70
2022-11-24T19:22:27.689Z,29.30
2022-11-24T19:24:57.720Z,27.60
2022-11-24T19:27:27.791Z,30.00
2022-11-24T19:29:57.392Z,29.40
2022-11-24T19:32:26.857Z,29.80
2022-11-24T19:34:56.791Z,28.70
2022-11-24T19:37:26.362Z,28.00
2022-11-24T19:39:56.300Z,28.50
2022-11-24T19:42:26.281Z,28.40
2022-11-24T19:44:56.847Z,30.00
2022-11-24T19:47:27.062Z,28.40
2022-11-24T19:49:57.722Z,31.10
2022-11-24T19:52:27.263Z,31.40
2022-11-24T19:54:57.331Z,26.40
2022-11-24T19:57:27.476Z,27.60
2022-11-24T19:59:57.146Z,28.30
2022-11-24T20:02:28.697Z,28.70
2022-11-24T20:04:58.903Z,30.70
2022-11-24T20:07:28.941Z,29.70
2022-11-24T20:10:03.032Z,30.80
2022-11-24T20:12:36.818Z,29.00
2022-11-24T20:15:07.769Z,30.90
2022-11-24T20:17:37.699Z,28.90
2022-11-24T20:20:08.350Z,27.10
2022-11-24T20:22:38.352Z,26.60
2022-11-24T20:25:08.903Z,28.40
2022-11-24T20:27:38.415Z,29.40
2022-11-24T20:30:08.690Z,28.30
2022-11-24T20:32:38.688Z,28.70
2022-11-24T20:35:11.214Z,27.90
2022-11-24T20:37:45.313Z,30.60
2022-11-24T20:40:16.060Z,27.80
2022-11-24T20:42:46.157Z,29.80
2022-11-24T20:45:16.783Z,28.90
2022-11-24T20:47:46.294Z,30.30
2022-11-24T20:50:16.530Z,30.60
2022-11-24T20:52:46.551Z,30.00
2022-11-24T20:55:16.315Z,28.90
2022-11-24T20:57:45.788Z,28.50
2022-11-24T21:00:16.662Z,27.80
2022-11-24T21:02:47.786Z,26.30
2022-11-24T21:05:17.705Z,27.90
2022-11-24T21:07:47.728Z,27.50
2022-11-24T21:10:18.581Z,29.20
2022-11-24T21:12:48.572Z,27.60
2022-11-24T21:15:18.649Z,29.20
2022-11-24T21:17:49.234Z,28.40
2022-11-24T21:20:20.283Z,31.10
2022-11-24T21:22:49.921Z,29.10
2022-11-24T21:25:20.177Z,27.90
2022-11-24T21:27:50.360Z,29.50
2022-11-24T21:30:20.547Z,30.10
2022-11-24T21:32:50.845Z,29.20
2022-11-24T21:35:21.445Z,28.90
2022-11-24T21:37:51.429Z,27.10
2022-11-24T21:40:22.246Z,27.70
2022-11-24T21:42:52.510Z,28.40
2022-11-24T21:45:22.130Z,28.20
2022-11-24T21:47:55.751Z,29.80
2022-11-24T21:50:25.847Z,28.00
2022-11-24T21:53:00.582Z,29.80
2022-11-24T21:55:33.657Z,27.10
2022-11-24T21:58:06.492Z,28.30
2022-11-24T22:00:36.109Z,31.00
2022-11-24T22:03:06.101Z,29.50
2022-11-24T22:05:35.670Z,28.60
2022-11-24T22:08:05.590Z,27.90
2022-11-24T22:10:35.461Z,26.80
2022-11-24T22:13:08.679Z,30.00
2022-11-24T22:15:38.288Z,27.10
2022-11-24T22:18:07.893Z,25.80
2022-11-24T22:20:37.878Z,28.00
2022-11-24T22:23:07.925Z,27.80
2022-11-24T22:25:37.541Z,30.00
2022-11-24T22:28:07.278Z,26.60
2022-11-24T22:30:37.405Z,27.80
2022-11-24T22:33:07.469Z,27.60
2022-11-24T22:35:37.027Z,29.40
2022-11-24T22:38:07.007Z,27.40
2022-11-24T22:40:36.664Z,29.30
2022-11-24T22:43:06.676Z,27.60
2022-11-24T22:45:37.077Z,28.90
2022-11-24T22:48:07.436Z,27.90
2022-11-24T22:50:37.435Z,27.00
2022-11-24T22:53:06.930Z,27.50
2022-11-24T22:55:36.595Z,30.00
2022-11-24T22:58:06.124Z,27.70
2022-11-24T23:00:36.069Z,26.70
2022-11-24T23:03:06.221Z,27.00
2022-11-24T23:05:36.313Z,28.30
2022-11-24T23:08:06.610Z,26.90
2022-11-24T23:10:36.658Z,29.30
2022-11-24T23:13:06.757Z,26.90
2022-11-24T23:15:36.505Z,27.20
2022-11-24T23:18:06.449Z,27.70
2022-11-24T23:20:36.915Z,28.10
2022-11-24T23:23:06.911Z,28.30
2022-11-24T23:25:36.935Z,27.50
2022-11-24T23:28:06.693Z,28.00
2022-11-24T23:30:36.973Z,28.20
2022-11-24T23:33:06.539Z,27.60
2022-11-24T23:35:37.358Z,28.00
2022-11-24T23:38:07.945Z,27.60
2022-11-24T23:40:39.022Z,28.80
2022-11-24T23:43:08.605Z,28.70
2022-11-24T23:45:38.285Z,27.60
2022-11-24T23:48:09.685Z,29.60
2022-11-24T23:50:40.253Z,29.60
2022-11-24T23:53:09.745Z,27.00
2022-11-24T23:55:39.681Z,28.00
2022-11-24T23:58:09.689Z,26.50
